createdAt,value
2023-02-26T00:01:56.481Z,5.1
2023-02-26T00:07:37.950Z,5
2023-02-26T00:12:56.465Z,5
2023-02-26T00:17:57.616Z,5
2023-02-26T00:23:14.990Z,5
2023-02-26T00:28:37.917Z,5
2023-02-26T00:33:56.475Z,4.9
2023-02-26T00:38:56.454Z,5
2023-02-26T00:44:37.910Z,5
2023-02-26T00:49:56.441Z,5
2023-02-26T00:54:56.433Z,5
2023-02-26T00:59:56.432Z,4.9
2023-02-26T01:05:37.875Z,4.9
2023-02-26T01:10:37.906Z,4.9
2023-02-26T01:15:56.508Z,4.9
2023-02-26T01:20:56.507Z,4.9
2023-02-26T01:26:37.882Z,4.9
2023-02-26T01:31:38.199Z,4.9
2023-02-26T01:36:38.022Z,5
2023-02-26T01:41:56.409Z,4.9
2023-02-26T01:47:37.913Z,4.9
2023-02-26T01:52:37.948Z,4.9
2023-02-26T01:57:56.401Z,4.9
2023-02-26T02:02:56.576Z,4.9
2023-02-26T02:08:37.939Z,4.9
2023-02-26T02:13:37.917Z,4.9
2023-02-26T02:18:56.397Z,4.9
2023-02-26T02:23:56.499Z,4.9
2023-02-26T02:29:37.871Z,5
2023-02-26T02:34:37.905Z,5
2023-02-26T02:39:56.415Z,4.9
2023-02-26T02:45:37.910Z,4.9
2023-02-26T02:50:37.876Z,4.8
2023-02-26T02:55:37.975Z,4.8
2023-02-26T03:00:56.519Z,4.8
2023-02-26T03:05:56.456Z,4.8
2023-02-26T03:11:37.894Z,4.8
2023-02-26T03:16:56.389Z,4.8
2023-02-26T03:21:56.399Z,4.7
2023-02-26T03:26:56.481Z,4.7
2023-02-26T03:32:37.932Z,4.7
2023-02-26T03:37:56.411Z,4.7
2023-02-26T03:43:37.896Z,4.7
2023-02-26T03:48:38.037Z,4.7
2023-02-26T03:53:56.398Z,4.8
2023-02-26T03:58:56.431Z,4.7
2023-02-26T04:04:37.926Z,4.7
2023-02-26T04:09:37.900Z,4.7
2023-02-26T04:14:56.402Z,4.7
2023-02-26T04:19:56.411Z,4.7
2023-02-26T04:25:37.876Z,4.7
2023-02-26T04:30:56.579Z,4.7
2023-02-26T04:36:37.873Z,4.8
2023-02-26T04:41:56.394Z,4.7
2023-02-26T04:47:37.908Z,4.8
2023-02-26T04:52:56.379Z,4.7
2023-02-26T04:57:56.394Z,4.6
2023-02-26T05:03:37.952Z,4.6
2023-02-26T05:08:56.393Z,4.7
2023-02-26T05:13:56.404Z,4.6
2023-02-26T05:19:37.956Z,4.7
2023-02-26T05:24:56.386Z,4.7
2023-02-26T05:29:56.383Z,4.8
2023-02-26T05:35:37.888Z,4.8
2023-02-26T05:40:37.892Z,4.7
2023-02-26T05:45:37.869Z,4.7
2023-02-26T05:50:37.886Z,4.7
2023-02-26T05:55:56.417Z,4.7
2023-02-26T06:01:38.012Z,4.7
2023-02-26T06:06:37.884Z,4.6
2023-02-26T06:11:37.902Z,4.6
2023-02-26T06:16:56.385Z,4.7
2023-02-26T06:22:37.878Z,4.5
2023-02-26T06:27:37.879Z,4.6
2023-02-26T06:32:37.933Z,4.5
2023-02-26T06:37:56.381Z,4.5
2023-02-26T06:43:37.942Z,4.6
2023-02-26T06:48:56.382Z,4.6
2023-02-26T06:53:56.393Z,4.6
2023-02-26T06:59:37.896Z,4.7
2023-02-26T07:04:37.872Z,4.7
2023-02-26T07:09:37.919Z,4.7
2023-02-26T07:14:56.416Z,4.8
2023-02-26T07:20:37.859Z,4.9
2023-02-26T07:25:37.862Z,5
2023-02-26T07:30:56.495Z,5.1
2023-02-26T07:35:56.379Z,5.2
2023-02-26T07:41:37.852Z,5.2
2023-02-26T07:46:37.944Z,5.5
2023-02-26T07:51:37.853Z,5.5
2023-02-26T07:56:37.843Z,5.5
2023-02-26T08:01:37.888Z,5.4
2023-02-26T08:06:56.428Z,5.6
2023-02-26T08:12:37.822Z,5.7
2023-02-26T08:17:37.928Z,5.8
2023-02-26T08:22:56.423Z,6.6
2023-02-26T08:28:37.849Z,7.4
2023-02-26T08:33:37.848Z,7.5
2023-02-26T08:38:37.892Z,8.1
2023-02-26T08:43:56.371Z,6.6
2023-02-26T08:49:37.839Z,6.7
2023-02-26T08:54:37.878Z,5.3
2023-02-26T08:59:56.359Z,5.6
2023-02-26T09:04:56.357Z,5.8
2023-02-26T09:09:56.404Z,6
2023-02-26T09:14:56.373Z,5.4
2023-02-26T09:20:37.860Z,4.9
2023-02-26T09:25:37.924Z,5
2023-02-26T09:30:56.387Z,4.9
2023-02-26T09:36:37.869Z,4.9
2023-02-26T09:41:56.366Z,5.1
2023-02-26T09:46:56.442Z,5.1
2023-02-26T09:52:37.857Z,4.4
2023-02-26T09:57:56.402Z,4.4
2023-02-26T10:03:37.846Z,4.4
2023-02-26T10:08:37.863Z,4.2
2023-02-26T10:13:58.147Z,4
2023-02-26T10:19:37.856Z,4.3
2023-02-26T10:24:56.360Z,3.9
2023-02-26T10:29:56.388Z,3.9
2023-02-26T10:34:56.384Z,4.1
2023-02-26T10:39:56.389Z,4.2
2023-02-26T10:45:37.886Z,3.9
2023-02-26T10:50:56.352Z,3.7
2023-02-26T10:55:56.370Z,3.7
2023-02-26T11:00:56.422Z,4.4
2023-02-26T11:05:56.380Z,4.4
2023-02-26T11:11:37.892Z,4.5
2023-02-26T11:16:56.359Z,3.9
2023-02-26T11:21:56.368Z,3.7
2023-02-26T11:27:37.872Z,3.8
2023-02-26T11:32:38.059Z,4
2023-02-26T11:37:56.439Z,3.8
2023-02-26T11:43:37.858Z,3.9
2023-02-26T11:48:56.385Z,3.8
2023-02-26T11:53:56.422Z,3.7
2023-02-26T11:59:37.817Z,3.8
2023-02-26T12:04:37.870Z,3.7
2023-02-26T12:09:37.860Z,4.2
2023-02-26T12:14:37.874Z,4.1
2023-02-26T12:19:56.394Z,3.7
2023-02-26T12:25:37.812Z,3.5
2023-02-26T12:30:37.851Z,3.4
2023-02-26T12:35:56.378Z,3.5
2023-02-26T12:40:56.400Z,3.8
2023-02-26T12:46:37.879Z,3.6
2023-02-26T12:51:56.395Z,3.7
2023-02-26T12:57:37.879Z,3.5
2023-02-26T13:02:56.517Z,3.6
2023-02-26T13:08:37.947Z,3.7
2023-02-26T13:13:56.289Z,3.5
2023-02-26T13:18:56.378Z,3.4
2023-02-26T13:24:37.905Z,3.4
2023-02-26T13:29:56.368Z,3.5
2023-02-26T13:34:56.447Z,3.7
2023-02-26T13:40:37.868Z,3.8
2023-02-26T13:45:37.900Z,3.7
2023-02-26T13:50:56.383Z,3.7
2023-02-26T13:56:37.873Z,3.5
2023-02-26T14:01:37.853Z,3.7
2023-02-26T14:06:56.366Z,3.4
2023-02-26T14:11:56.416Z,3.5
2023-02-26T14:17:37.870Z,3.7
2023-02-26T14:22:56.334Z,3.7
2023-02-26T14:28:37.882Z,3.6
2023-02-26T14:33:37.969Z,3.7
2023-02-26T14:38:56.358Z,3.7
2023-02-26T14:43:56.372Z,3.6
2023-02-26T14:49:37.847Z,3.7
2023-02-26T14:54:37.871Z,3.5
2023-02-26T14:59:56.373Z,3.6
2023-02-26T15:05:37.825Z,3.4
2023-02-26T15:10:37.821Z,3.6
2023-02-26T15:15:56.500Z,3.7
2023-02-26T15:20:56.462Z,3.5
2023-02-26T15:26:37.859Z,3.6
2023-02-26T15:31:56.642Z,3.3
2023-02-26T15:37:37.819Z,3.3
2023-02-26T15:42:37.832Z,3.5
2023-02-26T15:47:56.392Z,3.3
2023-02-26T15:53:37.888Z,3.4
2023-02-26T15:58:37.838Z,3.4
2023-02-26T16:03:56.370Z,3.3
2023-02-26T16:08:56.372Z,3.5
2023-02-26T16:14:37.875Z,3.3
2023-02-26T16:19:56.382Z,3.3
2023-02-26T16:25:37.765Z,3.4
2023-02-26T16:30:38.070Z,3.3
2023-02-26T16:35:37.846Z,3.3
2023-02-26T16:40:37.851Z,3.4
2023-02-26T16:45:56.367Z,3.3
2023-02-26T16:50:56.390Z,3.4
2023-02-26T16:56:37.819Z,3.3
2023-02-26T17:01:37.890Z,3.6
2023-02-26T17:06:56.356Z,3.5
2023-02-26T17:12:37.811Z,3.5
2023-02-26T17:17:37.820Z,3.4
2023-02-26T17:22:56.373Z,3.6
2023-02-26T17:27:56.411Z,3.5
2023-02-26T17:33:37.806Z,3.6
2023-02-26T17:38:56.354Z,3.5
2023-02-26T17:44:37.794Z,3.4
2023-02-26T17:49:37.795Z,3.8
2023-02-26T17:54:37.853Z,3.8
2023-02-26T17:59:37.849Z,3.9
2023-02-26T18:04:56.396Z,3.9
2023-02-26T18:10:37.825Z,4.1
2023-02-26T18:15:37.820Z,4
2023-02-26T18:20:37.926Z,3.8
2023-02-26T18:25:56.364Z,3.6
2023-02-26T18:31:38.357Z,3.9
2023-02-26T18:36:56.333Z,4.1
2023-02-26T18:41:56.387Z,4
2023-02-26T18:47:37.807Z,4
2023-02-26T18:52:56.359Z,4
2023-02-26T18:58:40.363Z,4
2023-02-26T19:03:56.335Z,4
2023-02-26T19:08:56.332Z,4.1
2023-02-26T19:14:37.817Z,4.1
2023-02-26T19:19:37.803Z,4.2
2023-02-26T19:24:56.315Z,4.2
2023-02-26T19:29:56.427Z,4.2
2023-02-26T19:35:37.808Z,4.2
2023-02-26T19:40:37.833Z,4
2023-02-26T19:45:37.860Z,4.2
2023-02-26T19:50:56.331Z,4.1
2023-02-26T19:56:37.804Z,4.2
2023-02-26T20:01:56.480Z,4.4
2023-02-26T20:07:37.805Z,4.4
2023-02-26T20:12:37.821Z,4.5
2023-02-26T20:17:56.361Z,4.5
2023-02-26T20:22:56.340Z,4.5
2023-02-26T20:28:37.814Z,4.6
2023-02-26T20:33:56.366Z,4.7
2023-02-26T20:39:37.809Z,4.7
2023-02-26T20:44:37.842Z,4.7
2023-02-26T20:49:56.375Z,4.7
2023-02-26T20:55:37.806Z,4.8
2023-02-26T21:00:56.485Z,4.9
2023-02-26T21:05:56.393Z,4.8
2023-02-26T21:11:37.802Z,4.6
2023-02-26T21:16:56.403Z,4.6
2023-02-26T21:21:56.380Z,4.3
2023-02-26T21:26:56.363Z,4.5
2023-02-26T21:32:37.896Z,4.6
2023-02-26T21:37:56.349Z,4.4
2023-02-26T21:43:37.809Z,4.5
2023-02-26T21:48:56.310Z,4.6
2023-02-26T21:54:38.124Z,4.7
2023-02-26T21:59:56.248Z,4.5
2023-02-26T22:04:56.313Z,4.4
2023-02-26T22:09:56.348Z,4.6
2023-02-26T22:14:56.313Z,4.6
2023-02-26T22:20:37.800Z,4.4
2023-02-26T22:25:37.897Z,4.4
2023-02-26T22:30:56.417Z,4.5
2023-02-26T22:35:56.385Z,4.5
2023-02-26T22:41:37.974Z,4.5
2023-02-26T22:46:56.286Z,4.6
2023-02-26T22:51:56.327Z,4.6
2023-02-26T22:57:37.806Z,4.6
2023-02-26T23:02:37.798Z,4.6
2023-02-26T23:07:56.291Z,4.7
2023-02-26T23:12:56.342Z,4.7
2023-02-26T23:18:37.772Z,4.7
2023-02-26T23:23:37.844Z,4.7
2023-02-26T23:28:56.318Z,4.7
2023-02-26T23:34:37.797Z,4.7
2023-02-26T23:39:56.311Z,4.8
2023-02-26T23:44:56.361Z,4.8
2023-02-26T23:50:37.802Z,4.7
2023-02-26T23:55:56.300Z,4.8
